Time;durP1;ratioP1;P1;durP2;ratioP2;P2;SDS_P1;SDS_P2;PMS_P1;PMS_P2;Temp;Humidity;BMP_temperature;BMP_pressure;BME280_temperature;BME280_humidity;BME280_pressure;Samples;Min_cycle;Max_cycle;Signal;HPM_P1;HPM_P2
2023/05/01 00:00:20;;;;;;;10.43;5.07;;;;;;;;;;4978580;28;20029;-75
2023/05/01 00:02:46;;;;;;;10.35;4.55;;;;;;;;;;4980450;28;20026;-75
2023/05/01 00:05:12;;;;;;;10.68;5.32;;;;;;;;;;4976430;28;20030;-75
2023/05/01 00:07:38;;;;;;;12.52;6.10;;;;;;;;;;4987946;28;20029;-76
2023/05/01 00:10:04;;;;;;;9.88;6.20;;;;;;;;;;4987549;28;20030;-75
2023/05/01 00:12:30;;;;;;;7.90;5.13;;;;;;;;;;4989548;28;20026;-75
2023/05/01 00:14:56;;;;;;;11.20;5.78;;;;;;;;;;4987817;28;20419;-75
2023/05/01 00:17:22;;;;;;;9.82;5.10;;;;;;;;;;4986349;28;20053;-75
2023/05/01 00:19:54;;;;;;;13.30;4.72;;;;;;;;;;4976485;28;20023;-75
2023/05/01 00:22:20;;;;;;;21.38;5.53;;;;;;;;;;4980226;28;20110;-76
2023/05/01 00:24:47;;;;;;;11.77;6.05;;;;;;;;;;4977696;28;20053;-75
2023/05/01 00:27:13;;;;;;;13.38;4.35;;;;;;;;;;4978385;28;20094;-74
2023/05/01 00:29:41;;;;;;;7.53;4.45;;;;;;;;;;4977275;28;20061;-76
2023/05/01 00:32:06;;;;;;;12.93;5.05;;;;;;;;;;4988658;28;20085;-75
2023/05/01 00:34:33;;;;;;;8.73;3.97;;;;;;;;;;4989280;28;20022;-75
2023/05/01 00:36:59;;;;;;;12.98;4.32;;;;;;;;;;4984368;28;20036;-76
2023/05/01 00:39:25;;;;;;;12.85;5.28;;;;;;;;;;4989067;28;20030;-75
2023/05/01 00:41:51;;;;;;;8.70;4.80;;;;;;;;;;4988270;28;20073;-75
2023/05/01 00:44:17;;;;;;;9.43;4.50;;;;;;;;;;4982203;28;20019;-74
2023/05/01 00:46:43;;;;;;;12.00;5.25;;;;;;;;;;4979376;28;20041;-75
2023/05/01 00:49:10;;;;;;;11.00;4.45;;;;;;;;;;4975744;28;20106;-76
2023/05/01 00:51:36;;;;;;;9.55;4.90;;;;;;;;;;4984218;28;20050;-75
2023/05/01 00:54:02;;;;;;;10.30;5.05;;;;;;;;;;4974694;28;20050;-76
2023/05/01 00:56:31;;;;;;;7.68;4.40;;;;;;;;;;4981802;28;20153;-76
2023/05/01 00:58:57;;;;;;;9.27;4.85;;;;;;;;;;4986287;28;20043;-76
2023/05/01 01:01:23;;;;;;;7.70;4.70;;;;;;;;;;4985768;28;20517;-75
2023/05/01 01:03:50;;;;;;;12.35;4.20;;;;;;;;;;4985404;28;20062;-75
2023/05/01 01:06:21;;;;;;;9.30;4.20;;;;;;;;;;4987484;28;20026;-75
2023/05/01 01:08:58;;;;;;;7.85;4.50;;;;;;;;;;4978654;28;20026;-75
2023/05/01 01:11:37;;;;;;;10.23;4.82;;;;;;;;;;4986114;28;20030;-75
2023/05/01 01:14:08;;;;;;;12.43;4.93;;;;;;;;;;4988252;28;20046;-76
2023/05/01 01:16:39;;;;;;;9.45;4.07;;;;;;;;;;4987667;28;20032;-75
2023/05/01 01:19:11;;;;;;;6.32;4.35;;;;;;;;;;4981223;28;20038;-76
2023/05/01 01:21:39;;;;;;;10.23;4.75;;;;;;;;;;4980088;28;20500;-76
2023/05/01 01:24:23;;;;;;;8.25;4.22;;;;;;;;;;4975394;28;20019;-76
2023/05/01 01:26:49;;;;;;;6.68;3.83;;;;;;;;;;4987321;28;20030;-76
2023/05/01 01:29:15;;;;;;;7.20;4.10;;;;;;;;;;4980651;28;20030;-76
2023/05/01 01:32:00;;;;;;;8.25;4.00;;;;;;;;;;4975942;28;20039;-76
2023/05/01 01:34:27;;;;;;;7.75;3.80;;;;;;;;;;4982382;28;20050;-76
2023/05/01 01:37:01;;;;;;;10.55;5.03;;;;;;;;;;4986418;28;20113;-75
2023/05/01 01:39:30;;;;;;;11.50;3.90;;;;;;;;;;4988346;28;20494;-76
2023/05/01 01:42:01;;;;;;;7.55;4.13;;;;;;;;;;4969873;28;20034;-76
2023/05/01 01:44:44;;;;;;;7.60;3.85;;;;;;;;;;4988319;28;20027;-75
2023/05/01 01:47:11;;;;;;;11.80;4.22;;;;;;;;;;4985264;28;20105;-75
2023/05/01 01:49:40;;;;;;;8.52;4.22;;;;;;;;;;4978891;28;20193;-76
2023/05/01 01:52:07;;;;;;;8.38;4.22;;;;;;;;;;4984071;28;20117;-76
2023/05/01 01:54:37;;;;;;;7.15;3.50;;;;;;;;;;4985270;28;20260;-76
2023/05/01 01:57:07;;;;;;;9.65;3.53;;;;;;;;;;4982537;28;20041;-76
2023/05/01 01:59:41;;;;;;;7.75;4.00;;;;;;;;;;4974006;28;20031;-76
2023/05/01 02:02:25;;;;;;;5.50;3.60;;;;;;;;;;4982248;28;20019;-76
2023/05/01 02:04:52;;;;;;;5.72;3.42;;;;;;;;;;4979732;28;20400;-75
2023/05/01 02:07:19;;;;;;;7.43;3.67;;;;;;;;;;4974419;28;20023;-76
2023/05/01 02:09:45;;;;;;;7.15;3.72;;;;;;;;;;4977621;28;20037;-75
2023/05/01 02:12:12;;;;;;;5.53;3.53;;;;;;;;;;4979791;28;20022;-76
2023/05/01 02:14:39;;;;;;;5.90;3.55;;;;;;;;;;4977524;28;20022;-75
2023/05/01 02:17:05;;;;;;;6.45;3.47;;;;;;;;;;4970179;28;20031;-76
2023/05/01 02:19:33;;;;;;;7.72;3.92;;;;;;;;;;4987679;28;20030;-76
2023/05/01 02:21:59;;;;;;;6.32;4.10;;;;;;;;;;4988018;28;20428;-76
2023/05/01 02:24:26;;;;;;;7.22;3.90;;;;;;;;;;4990395;28;20133;-76
2023/05/01 02:27:13;;;;;;;5.93;3.10;;;;;;;;;;4981854;28;20022;-76
2023/05/01 02:29:39;;;;;;;4.82;2.70;;;;;;;;;;4987753;28;20042;-76
2023/05/01 02:32:05;;;;;;;7.15;3.00;;;;;;;;;;4991181;28;20065;-75
2023/05/01 02:34:33;;;;;;;5.93;3.10;;;;;;;;;;4990823;28;20041;-76
2023/05/01 02:36:59;;;;;;;5.93;3.40;;;;;;;;;;4987115;28;20036;-75
2023/05/01 02:39:26;;;;;;;5.10;2.80;;;;;;;;;;4990364;28;20137;-76
2023/05/01 02:41:52;;;;;;;5.90;2.55;;;;;;;;;;4986589;28;20038;-76
2023/05/01 02:44:18;;;;;;;9.80;3.65;;;;;;;;;;4974104;28;20118;-76
2023/05/01 02:46:47;;;;;;;5.00;2.90;;;;;;;;;;4983301;28;20022;-76
2023/05/01 02:49:13;;;;;;;5.65;3.08;;;;;;;;;;4989901;28;20512;-76
2023/05/01 02:51:45;;;;;;;6.53;2.97;;;;;;;;;;4991236;28;20045;-76
2023/05/01 02:54:12;;;;;;;5.78;2.95;;;;;;;;;;4989993;28;20037;-76
2023/05/01 02:56:38;;;;;;;7.78;3.10;;;;;;;;;;4990171;28;20114;-76
2023/05/01 02:59:04;;;;;;;4.18;2.70;;;;;;;;;;4985965;28;20121;-76
2023/05/01 03:01:31;;;;;;;6.25;3.10;;;;;;;;;;4978315;28;20081;-75
2023/05/01 03:03:59;;;;;;;3.30;2.42;;;;;;;;;;4978387;28;20098;-75
2023/05/01 03:06:27;;;;;;;4.38;2.85;;;;;;;;;;4988537;28;20030;-75
2023/05/01 03:08:53;;;;;;;5.45;2.38;;;;;;;;;;4990271;28;20037;-75
2023/05/01 03:11:20;;;;;;;4.63;2.88;;;;;;;;;;4988429;28;20034;-76
2023/05/01 03:13:46;;;;;;;3.72;2.42;;;;;;;;;;4972048;28;20054;-76
2023/05/01 03:16:12;;;;;;;5.45;2.72;;;;;;;;;;4984562;28;20022;-75
2023/05/01 03:18:38;;;;;;;4.32;2.65;;;;;;;;;;4978523;28;20057;-75
2023/05/01 03:21:04;;;;;;;6.22;2.80;;;;;;;;;;4989334;28;20078;-75
2023/05/01 03:23:30;;;;;;;6.78;2.95;;;;;;;;;;4972477;28;20117;-76
2023/05/01 03:25:56;;;;;;;4.53;2.50;;;;;;;;;;4974112;28;20018;-75
2023/05/01 03:28:22;;;;;;;3.83;2.67;;;;;;;;;;4983765;28;20535;-75
2023/05/01 03:30:50;;;;;;;3.60;2.20;;;;;;;;;;4987731;28;20080;-75
2023/05/01 03:33:16;;;;;;;3.20;2.22;;;;;;;;;;4989164;28;20104;-75
2023/05/01 03:35:42;;;;;;;6.65;2.63;;;;;;;;;;4982224;28;20678;-75
2023/05/01 03:38:08;;;;;;;4.88;2.15;;;;;;;;;;4980499;28;20053;-76
2023/05/01 03:40:34;;;;;;;5.53;2.42;;;;;;;;;;4990645;28;20031;-76
2023/05/01 03:43:00;;;;;;;5.95;2.70;;;;;;;;;;4993209;28;20042;-76
2023/05/01 03:45:29;;;;;;;5.13;2.58;;;;;;;;;;4997467;28;20037;-76
2023/05/01 03:47:59;;;;;;;3.50;2.53;;;;;;;;;;4986510;28;20030;-76
2023/05/01 03:50:25;;;;;;;3.22;2.20;;;;;;;;;;4990373;28;20014;-76
2023/05/01 03:53:00;;;;;;;4.88;2.08;;;;;;;;;;4993622;28;20042;-76
2023/05/01 03:55:33;;;;;;;5.65;2.55;;;;;;;;;;4988486;28;20102;-75
2023/05/01 03:58:00;;;;;;;3.22;2.22;;;;;;;;;;4986601;28;20037;-75
2023/05/01 04:00:26;;;;;;;3.17;2.17;;;;;;;;;;4994318;28;20022;-75
2023/05/01 04:02:52;;;;;;;3.63;2.20;;;;;;;;;;4980383;28;20023;-75
2023/05/01 04:05:20;;;;;;;3.72;2.00;;;;;;;;;;4982257;28;20026;-76
2023/05/01 04:07:46;;;;;;;5.05;2.47;;;;;;;;;;4980550;28;20117;-76
2023/05/01 04:10:12;;;;;;;2.72;2.13;;;;;;;;;;4989573;28;20117;-76
2023/05/01 04:12:38;;;;;;;2.72;2.03;;;;;;;;;;4988723;28;20393;-75
2023/05/01 04:15:04;;;;;;;3.63;2.33;;;;;;;;;;4988328;28;20075;-75
2023/05/01 04:17:31;;;;;;;4.03;2.33;;;;;;;;;;4979119;28;20046;-76
2023/05/01 04:19:57;;;;;;;4.57;1.92;;;;;;;;;;4987499;28;20077;-76
2023/05/01 04:22:23;;;;;;;3.55;2.10;;;;;;;;;;4983683;28;20031;-76
2023/05/01 04:24:50;;;;;;;2.40;1.85;;;;;;;;;;4989920;28;20025;-76
2023/05/01 04:27:16;;;;;;;3.83;2.35;;;;;;;;;;4975391;28;20061;-75
2023/05/01 04:29:42;;;;;;;5.47;2.20;;;;;;;;;;4971077;28;20488;-76
2023/05/01 04:32:08;;;;;;;3.97;1.95;;;;;;;;;;4985314;28;20481;-76
2023/05/01 04:34:34;;;;;;;2.80;1.67;;;;;;;;;;4974538;28;20038;-75
2023/05/01 04:37:01;;;;;;;2.15;1.75;;;;;;;;;;4978489;28;20077;-76
2023/05/01 04:39:27;;;;;;;2.40;1.77;;;;;;;;;;4971284;28;20022;-75
2023/05/01 04:41:53;;;;;;;4.95;1.80;;;;;;;;;;4972341;28;20382;-75
2023/05/01 04:44:19;;;;;;;3.58;1.58;;;;;;;;;;4976919;28;20393;-76
2023/05/01 04:46:45;;;;;;;2.33;1.58;;;;;;;;;;4986225;28;20112;-75
2023/05/01 04:49:11;;;;;;;3.05;1.77;;;;;;;;;;4987889;28;20045;-75
2023/05/01 04:51:37;;;;;;;2.80;1.70;;;;;;;;;;4985816;28;20030;-76
2023/05/01 04:54:03;;;;;;;2.55;1.80;;;;;;;;;;4980234;28;20032;-75
2023/05/01 04:56:29;;;;;;;2.33;1.90;;;;;;;;;;4974329;28;20385;-75
2023/05/01 04:58:55;;;;;;;2.60;1.88;;;;;;;;;;4979356;28;20031;-75
2023/05/01 05:01:21;;;;;;;2.47;1.75;;;;;;;;;;4987714;28;20034;-76
2023/05/01 05:03:48;;;;;;;3.55;1.98;;;;;;;;;;4987776;28;20253;-76
2023/05/01 05:06:14;;;;;;;3.42;2.22;;;;;;;;;;4986067;28;20019;-75
2023/05/01 05:08:40;;;;;;;4.72;2.38;;;;;;;;;;4988735;28;20045;-75
2023/05/01 05:11:06;;;;;;;2.67;1.80;;;;;;;;;;4988198;28;20030;-75
2023/05/01 05:13:32;;;;;;;2.53;1.60;;;;;;;;;;4988084;28;20026;-75
2023/05/01 05:15:58;;;;;;;3.17;1.80;;;;;;;;;;4987884;28;20402;-75
2023/05/01 05:18:24;;;;;;;2.50;1.77;;;;;;;;;;4973584;28;20094;-74
2023/05/01 05:20:50;;;;;;;3.53;1.73;;;;;;;;;;4971746;28;20030;-75
2023/05/01 05:23:15;;;;;;;3.22;1.85;;;;;;;;;;4971902;28;20034;-75
2023/05/01 05:25:41;;;;;;;4.18;1.70;;;;;;;;;;4972028;28;20042;-76
2023/05/01 05:28:10;;;;;;;3.03;1.95;;;;;;;;;;4971031;28;20031;-75
2023/05/01 05:30:37;;;;;;;1.85;1.63;;;;;;;;;;4975773;28;20042;-75
2023/05/01 05:33:04;;;;;;;2.65;1.67;;;;;;;;;;4981635;28;20041;-76
2023/05/01 05:35:30;;;;;;;3.80;1.33;;;;;;;;;;4980093;28;20026;-75
2023/05/01 05:37:56;;;;;;;2.63;1.60;;;;;;;;;;4970608;28;20556;-75
2023/05/01 05:40:22;;;;;;;2.67;1.90;;;;;;;;;;4980856;28;20058;-75
2023/05/01 05:42:48;;;;;;;2.63;1.65;;;;;;;;;;4984333;28;20555;-75
2023/05/01 05:45:14;;;;;;;3.53;1.58;;;;;;;;;;4987336;28;20030;-76
2023/05/01 05:47:40;;;;;;;1.92;1.52;;;;;;;;;;4975542;28;20150;-75
2023/05/01 05:50:06;;;;;;;2.95;1.45;;;;;;;;;;4974273;28;20034;-75
2023/05/01 05:52:32;;;;;;;2.55;1.50;;;;;;;;;;4984278;28;20025;-75
2023/05/01 05:54:58;;;;;;;3.03;2.13;;;;;;;;;;4987502;28;20022;-76
2023/05/01 05:57:25;;;;;;;1.70;1.20;;;;;;;;;;4981700;28;20030;-74
2023/05/01 05:59:50;;;;;;;2.00;1.52;;;;;;;;;;4992054;28;20030;-75
2023/05/01 06:02:16;;;;;;;2.00;1.70;;;;;;;;;;4991630;28;20022;-75
2023/05/01 06:04:48;;;;;;;2.65;1.52;;;;;;;;;;4991550;28;20533;-75
2023/05/01 06:07:15;;;;;;;2.67;1.85;;;;;;;;;;4988124;28;20022;-75
2023/05/01 06:09:41;;;;;;;2.80;1.52;;;;;;;;;;4991526;28;20030;-75
2023/05/01 06:12:07;;;;;;;2.20;1.17;;;;;;;;;;4990316;28;20033;-76
2023/05/01 06:14:33;;;;;;;1.50;1.13;;;;;;;;;;4984222;28;20030;-75
2023/05/01 06:16:59;;;;;;;1.70;1.33;;;;;;;;;;4988632;28;20034;-75
2023/05/01 06:19:25;;;;;;;2.65;1.50;;;;;;;;;;4986913;28;20038;-76
2023/05/01 06:21:51;;;;;;;1.40;1.20;;;;;;;;;;4980403;28;20034;-76
2023/05/01 06:24:17;;;;;;;2.30;1.50;;;;;;;;;;4979504;28;20030;-77
2023/05/01 06:26:43;;;;;;;2.78;1.80;;;;;;;;;;4986905;28;20041;-76
2023/05/01 06:29:09;;;;;;;4.90;1.40;;;;;;;;;;4976035;28;20060;-76
2023/05/01 06:31:35;;;;;;;3.22;1.23;;;;;;;;;;4990855;28;20034;-76
2023/05/01 06:34:01;;;;;;;1.83;1.30;;;;;;;;;;4990115;28;20030;-76
2023/05/01 06:36:27;;;;;;;1.75;1.38;;;;;;;;;;4984635;28;20385;-77
2023/05/01 06:38:53;;;;;;;3.03;1.42;;;;;;;;;;4987308;28;20034;-76
2023/05/01 06:41:20;;;;;;;2.03;1.48;;;;;;;;;;4983708;28;20025;-75
2023/05/01 06:43:47;;;;;;;2.22;1.40;;;;;;;;;;4973346;28;20070;-75
2023/05/01 06:46:13;;;;;;;1.45;1.10;;;;;;;;;;4983992;28;20046;-76
2023/05/01 06:48:39;;;;;;;1.95;1.60;;;;;;;;;;4988695;28;20027;-75
2023/05/01 06:51:05;;;;;;;1.42;1.13;;;;;;;;;;4987726;28;20026;-75
2023/05/01 06:53:31;;;;;;;1.27;0.95;;;;;;;;;;4982004;28;20393;-76
2023/05/01 06:55:59;;;;;;;2.20;1.30;;;;;;;;;;4985607;28;20057;-74
2023/05/01 06:58:25;;;;;;;2.20;1.40;;;;;;;;;;4989662;28;20026;-76
2023/05/01 07:00:52;;;;;;;3.08;1.30;;;;;;;;;;4980866;28;20022;-75
2023/05/01 07:03:18;;;;;;;1.38;1.27;;;;;;;;;;4985656;28;20026;-76
2023/05/01 07:05:44;;;;;;;1.40;1.30;;;;;;;;;;4981756;28;20026;-76
2023/05/01 07:08:10;;;;;;;2.65;1.40;;;;;;;;;;4976772;28;20027;-76
2023/05/01 07:10:36;;;;;;;2.47;1.58;;;;;;;;;;4980474;28;20026;-76
2023/05/01 07:13:02;;;;;;;1.75;1.40;;;;;;;;;;4982309;28;20035;-75
2023/05/01 07:15:28;;;;;;;1.85;1.40;;;;;;;;;;4983692;28;20089;-77
2023/05/01 07:17:55;;;;;;;2.72;1.67;;;;;;;;;;4985977;28;20026;-82
2023/05/01 07:20:21;;;;;;;1.20;0.93;;;;;;;;;;4986359;28;20018;-75
2023/05/01 07:22:47;;;;;;;1.45;1.17;;;;;;;;;;4981792;28;20045;-79
2023/05/01 07:25:13;;;;;;;2.08;1.27;;;;;;;;;;4982905;28;20022;-80
2023/05/01 07:27:39;;;;;;;2.90;1.20;;;;;;;;;;4984956;28;20547;-78
2023/05/01 07:30:05;;;;;;;2.08;1.48;;;;;;;;;;4985956;28;20034;-79
2023/05/01 07:32:31;;;;;;;1.90;1.23;;;;;;;;;;4980809;28;20222;-77
2023/05/01 07:34:58;;;;;;;6.28;1.48;;;;;;;;;;4984105;28;20021;-76
2023/05/01 07:37:25;;;;;;;1.05;0.90;;;;;;;;;;4986751;28;20027;-79
2023/05/01 07:39:51;;;;;;;2.10;1.25;;;;;;;;;;4986800;28;20509;-75
2023/05/01 07:42:17;;;;;;;2.78;1.35;;;;;;;;;;4982542;28;20046;-76
2023/05/01 07:44:43;;;;;;;4.10;1.80;;;;;;;;;;4989128;28;20038;-73
2023/05/01 07:47:09;;;;;;;1.60;1.23;;;;;;;;;;4986135;28;20022;-73
2023/05/01 07:49:39;;;;;;;3.90;1.25;;;;;;;;;;4985742;28;20381;-74
2023/05/01 07:52:06;;;;;;;1.63;1.25;;;;;;;;;;4987820;28;20041;-77
2023/05/01 07:54:32;;;;;;;1.02;0.90;;;;;;;;;;4977315;28;20035;-76
2023/05/01 07:56:58;;;;;;;1.83;1.20;;;;;;;;;;4973421;28;20058;-77
2023/05/01 07:59:24;;;;;;;1.50;1.00;;;;;;;;;;4985203;28;20035;-77
2023/05/01 08:01:50;;;;;;;2.00;1.20;;;;;;;;;;4982716;28;20448;-76
2023/05/01 08:04:17;;;;;;;2.80;1.20;;;;;;;;;;4989982;28;20022;-76
2023/05/01 08:06:43;;;;;;;2.53;1.40;;;;;;;;;;4989793;28;20081;-77
2023/05/01 08:09:09;;;;;;;2.35;1.65;;;;;;;;;;4986425;28;20105;-76
2023/05/01 08:11:35;;;;;;;1.67;1.15;;;;;;;;;;4989443;28;20784;-76
2023/05/01 08:14:02;;;;;;;1.92;0.90;;;;;;;;;;4989201;28;20045;-76
2023/05/01 08:16:28;;;;;;;1.55;1.30;;;;;;;;;;4986495;28;20089;-76
2023/05/01 08:18:54;;;;;;;1.50;1.17;;;;;;;;;;4980432;28;20034;-76
2023/05/01 08:21:20;;;;;;;2.28;1.55;;;;;;;;;;4978201;28;20023;-76
2023/05/01 08:23:46;;;;;;;1.67;0.95;;;;;;;;;;4983027;28;20030;-76
2023/05/01 08:26:12;;;;;;;1.38;1.17;;;;;;;;;;4988191;28;20076;-76
2023/05/01 08:28:38;;;;;;;2.95;1.10;;;;;;;;;;4988580;28;20038;-76
2023/05/01 08:31:04;;;;;;;1.42;1.10;;;;;;;;;;4988737;28;20026;-76
2023/05/01 08:33:30;;;;;;;2.85;1.55;;;;;;;;;;4987924;28;20137;-76
2023/05/01 08:35:56;;;;;;;3.88;1.13;;;;;;;;;;4988396;28;20158;-76
2023/05/01 08:38:22;;;;;;;3.25;1.63;;;;;;;;;;4989808;28;20106;-76
2023/05/01 08:40:52;;;;;;;1.52;1.30;;;;;;;;;;4987052;28;20030;-76
2023/05/01 08:43:18;;;;;;;1.17;0.90;;;;;;;;;;4984707;28;20258;-76
2023/05/01 08:45:46;;;;;;;2.00;1.30;;;;;;;;;;4987382;28;20069;-77
2023/05/01 08:48:13;;;;;;;3.00;1.10;;;;;;;;;;4988855;28;20039;-75
2023/05/01 08:50:39;;;;;;;1.70;1.27;;;;;;;;;;4987733;28;20065;-76
2023/05/01 08:53:05;;;;;;;2.70;1.30;;;;;;;;;;4987606;28;20023;-76
2023/05/01 08:55:33;;;;;;;1.13;0.75;;;;;;;;;;4986501;28;20034;-75
2023/05/01 08:57:59;;;;;;;1.52;1.20;;;;;;;;;;4988030;28;20377;-76
2023/05/01 09:00:25;;;;;;;1.40;1.10;;;;;;;;;;4988755;28;20030;-76
2023/05/01 09:02:51;;;;;;;2.22;1.10;;;;;;;;;;4986631;28;20218;-76
2023/05/01 09:05:18;;;;;;;1.42;1.02;;;;;;;;;;4986619;28;20042;-76
2023/05/01 09:07:45;;;;;;;2.75;1.00;;;;;;;;;;4988401;28;20030;-76
2023/05/01 09:10:11;;;;;;;0.85;0.82;;;;;;;;;;4988066;28;20503;-76
2023/05/01 09:12:38;;;;;;;1.50;0.95;;;;;;;;;;4988704;28;20032;-76
2023/05/01 09:15:06;;;;;;;1.13;0.80;;;;;;;;;;4985602;28;20544;-76
2023/05/01 09:17:32;;;;;;;2.15;1.30;;;;;;;;;;4988360;28;20030;-76
2023/05/01 09:19:58;;;;;;;1.75;1.10;;;;;;;;;;4982946;28;20023;-76
2023/05/01 09:22:25;;;;;;;1.63;0.88;;;;;;;;;;4969960;28;20026;-76
2023/05/01 09:24:51;;;;;;;3.80;0.90;;;;;;;;;;4979750;28;20030;-76
2023/05/01 09:27:17;;;;;;;3.28;0.88;;;;;;;;;;4979628;28;20432;-76
2023/05/01 09:29:47;;;;;;;1.02;0.90;;;;;;;;;;4980820;28;20030;-76
2023/05/01 09:32:14;;;;;;;1.70;0.70;;;;;;;;;;4981668;28;20031;-76
2023/05/01 09:34:40;;;;;;;2.10;1.20;;;;;;;;;;4981971;28;20084;-76
2023/05/01 09:37:06;;;;;;;2.42;0.90;;;;;;;;;;4975212;28;20712;-76
2023/05/01 09:39:32;;;;;;;1.42;0.90;;;;;;;;;;4970702;28;20070;-76
2023/05/01 09:41:58;;;;;;;0.98;0.80;;;;;;;;;;4976425;28;20485;-76
2023/05/01 09:44:25;;;;;;;1.58;0.88;;;;;;;;;;4969106;28;20038;-76
2023/05/01 09:46:51;;;;;;;1.00;0.90;;;;;;;;;;4969313;28;20026;-76
2023/05/01 09:49:17;;;;;;;1.50;1.23;;;;;;;;;;4986884;28;20026;-75
2023/05/01 09:51:43;;;;;;;3.90;1.48;;;;;;;;;;4987310;28;20518;-75
2023/05/01 09:54:17;;;;;;;1.08;0.85;;;;;;;;;;4987022;28;20097;-75
2023/05/01 09:56:49;;;;;;;2.13;0.98;;;;;;;;;;4988154;28;20126;-76
2023/05/01 09:59:19;;;;;;;0.88;0.85;;;;;;;;;;4988749;28;20034;-77
2023/05/01 10:01:45;;;;;;;1.65;1.10;;;;;;;;;;4988296;28;20109;-77
2023/05/01 10:04:12;;;;;;;1.98;0.80;;;;;;;;;;4969635;28;20552;-77
2023/05/01 10:06:41;;;;;;;1.27;0.90;;;;;;;;;;4986673;28;20077;-75
2023/05/01 10:09:15;;;;;;;2.08;1.02;;;;;;;;;;4987775;28;20031;-75
2023/05/01 10:11:48;;;;;;;2.28;0.82;;;;;;;;;;4987560;28;20643;-76
2023/05/01 10:14:15;;;;;;;0.70;0.70;;;;;;;;;;4986297;28;20057;-75
2023/05/01 10:16:41;;;;;;;4.13;1.55;;;;;;;;;;4982037;28;20045;-78
2023/05/01 10:19:08;;;;;;;1.23;0.80;;;;;;;;;;4972485;28;20018;-79
2023/05/01 10:21:34;;;;;;;2.33;0.85;;;;;;;;;;4982917;28;20106;-78
2023/05/01 10:24:02;;;;;;;1.65;1.08;;;;;;;;;;4967592;28;20030;-78
2023/05/01 10:26:28;;;;;;;1.58;0.93;;;;;;;;;;4984785;28;20027;-77
2023/05/01 10:28:58;;;;;;;5.68;1.20;;;;;;;;;;4983974;28;20049;-78
2023/05/01 10:31:27;;;;;;;2.25;0.95;;;;;;;;;;4979767;28;20403;-77
2023/05/01 10:33:54;;;;;;;1.00;0.90;;;;;;;;;;4984778;28;20485;-77
2023/05/01 10:36:25;;;;;;;1.20;0.93;;;;;;;;;;4984856;28;20023;-78
2023/05/01 10:38:51;;;;;;;1.38;0.93;;;;;;;;;;4985475;28;20026;-77
2023/05/01 10:41:37;;;;;;;1.85;1.23;;;;;;;;;;4983682;28;20070;-77
2023/05/01 10:44:19;;;;;;;1.20;1.10;;;;;;;;;;4986715;28;20045;-77
2023/05/01 10:46:45;;;;;;;1.25;1.10;;;;;;;;;;4986930;28;20686;-79
2023/05/01 10:49:11;;;;;;;1.63;1.20;;;;;;;;;;4988869;28;20038;-78
2023/05/01 10:51:57;;;;;;;2.45;0.93;;;;;;;;;;4987636;28;20031;-78
2023/05/01 10:54:41;;;;;;;1.23;1.00;;;;;;;;;;4985276;28;20031;-77
2023/05/01 10:57:07;;;;;;;2.10;1.05;;;;;;;;;;4983883;28;20046;-77
2023/05/01 10:59:52;;;;;;;1.15;0.93;;;;;;;;;;4982632;28;20026;-77
2023/05/01 11:02:21;;;;;;;1.77;1.10;;;;;;;;;;4982980;28;20546;-77
2023/05/01 11:04:49;;;;;;;1.83;1.17;;;;;;;;;;4988129;28;20034;-78
2023/05/01 11:07:17;;;;;;;1.30;1.15;;;;;;;;;;4988695;28;20030;-77
2023/05/01 11:09:47;;;;;;;4.00;1.40;;;;;;;;;;4988418;28;20022;-77
2023/05/01 11:12:14;;;;;;;1.00;0.70;;;;;;;;;;4985661;28;20493;-76
2023/05/01 11:14:56;;;;;;;2.70;1.10;;;;;;;;;;4985240;28;20161;-77
2023/05/01 11:17:48;;;;;;;1.58;1.23;;;;;;;;;;4983526;28;20031;-78
2023/05/01 11:20:23;;;;;;;3.20;1.40;;;;;;;;;;4982933;28;20042;-78
2023/05/01 11:22:51;;;;;;;1.52;0.90;;;;;;;;;;4984618;28;20037;-78
2023/05/01 11:25:19;;;;;;;1.63;0.80;;;;;;;;;;4987989;28;20248;-77
2023/05/01 11:27:49;;;;;;;1.88;1.23;;;;;;;;;;4986713;28;20035;-77
2023/05/01 11:30:15;;;;;;;2.53;1.23;;;;;;;;;;4987333;28;20033;-77
2023/05/01 11:32:46;;;;;;;1.65;1.38;;;;;;;;;;4988348;28;20034;-78
2023/05/01 11:35:19;;;;;;;2.45;1.13;;;;;;;;;;4987998;28;20014;-78
2023/05/01 11:37:45;;;;;;;2.88;1.30;;;;;;;;;;4986676;28;20026;-78
2023/05/01 11:40:23;;;;;;;1.88;1.15;;;;;;;;;;4987002;28;20022;-77
2023/05/01 11:42:50;;;;;;;2.03;1.20;;;;;;;;;;4984986;28;20046;-77
2023/05/01 11:45:16;;;;;;;1.92;1.08;;;;;;;;;;4988191;28;20030;-77
2023/05/01 11:47:42;;;;;;;1.25;1.13;;;;;;;;;;4986951;28;20019;-77
2023/05/01 11:50:09;;;;;;;2.08;1.27;;;;;;;;;;4987443;28;20562;-77
2023/05/01 11:52:42;;;;;;;2.25;1.48;;;;;;;;;;4985982;28;20065;-77
2023/05/01 11:55:09;;;;;;;2.78;1.65;;;;;;;;;;4987126;28;20038;-77
2023/05/01 11:58:05;;;;;;;4.55;2.20;;;;;;;;;;4985986;28;20018;-77
2023/05/01 12:00:36;;;;;;;3.35;1.50;;;;;;;;;;4976718;28;20082;-75
2023/05/01 12:03:03;;;;;;;3.42;1.40;;;;;;;;;;4986617;28;20065;-77
2023/05/01 12:05:30;;;;;;;2.38;1.45;;;;;;;;;;4983014;28;20600;-74
2023/05/01 12:08:06;;;;;;;1.90;1.50;;;;;;;;;;4982653;28;20034;-74
2023/05/01 12:10:32;;;;;;;4.55;2.05;;;;;;;;;;4987482;28;20029;-74
2023/05/01 12:12:58;;;;;;;2.10;1.70;;;;;;;;;;4987602;28;20054;-74
2023/05/01 12:15:24;;;;;;;4.85;1.95;;;;;;;;;;4987268;28;20027;-75
2023/05/01 12:17:51;;;;;;;2.95;1.33;;;;;;;;;;4987580;28;20026;-74
2023/05/01 12:20:17;;;;;;;5.03;2.22;;;;;;;;;;4986408;28;20041;-74
2023/05/01 12:22:49;;;;;;;1.77;1.58;;;;;;;;;;4986725;28;20022;-74
2023/05/01 12:25:18;;;;;;;3.10;1.60;;;;;;;;;;4986247;28;20142;-74
2023/05/01 12:27:45;;;;;;;2.53;1.88;;;;;;;;;;4985236;28;20049;-74
2023/05/01 12:30:11;;;;;;;6.30;1.80;;;;;;;;;;4983927;28;20449;-74
2023/05/01 12:32:37;;;;;;;1.73;1.50;;;;;;;;;;4983857;28;20081;-75
2023/05/01 12:35:18;;;;;;;1.80;1.40;;;;;;;;;;4985850;28;20081;-74
2023/05/01 12:37:50;;;;;;;2.15;1.92;;;;;;;;;;4986213;28;20054;-75
2023/05/01 12:40:17;;;;;;;3.67;1.65;;;;;;;;;;4985049;28;20189;-74
2023/05/01 12:42:43;;;;;;;4.63;1.60;;;;;;;;;;4984634;28;20042;-74
2023/05/01 12:45:13;;;;;;;1.65;1.23;;;;;;;;;;4986209;28;20030;-75
2023/05/01 12:47:39;;;;;;;2.30;1.60;;;;;;;;;;4984550;28;20026;-75
2023/05/01 12:50:06;;;;;;;3.45;1.42;;;;;;;;;;4985507;28;20054;-74
2023/05/01 12:52:32;;;;;;;3.78;1.70;;;;;;;;;;4984592;28;20034;-74
2023/05/01 12:55:05;;;;;;;3.38;1.67;;;;;;;;;;4986922;28;20034;-74
2023/05/01 12:57:31;;;;;;;2.95;1.70;;;;;;;;;;4986558;28;20030;-74
2023/05/01 13:00:01;;;;;;;2.15;1.50;;;;;;;;;;4984898;28;20038;-75
2023/05/01 13:02:30;;;;;;;4.57;1.85;;;;;;;;;;4984130;28;20022;-74
2023/05/01 13:05:10;;;;;;;2.22;1.55;;;;;;;;;;4981130;28;20052;-73
2023/05/01 13:07:37;;;;;;;5.35;1.77;;;;;;;;;;4984757;28;20535;-75
2023/05/01 13:10:04;;;;;;;1.50;1.27;;;;;;;;;;4982712;28;20042;-75
2023/05/01 13:12:31;;;;;;;2.60;1.80;;;;;;;;;;4985291;28;20194;-77
2023/05/01 13:14:57;;;;;;;2.40;1.52;;;;;;;;;;4982934;28;20034;-76
2023/05/01 13:17:24;;;;;;;2.83;1.55;;;;;;;;;;4982693;28;20034;-75
2023/05/01 13:19:54;;;;;;;2.65;1.58;;;;;;;;;;4983952;28;20061;-76
2023/05/01 13:22:29;;;;;;;1.67;1.10;;;;;;;;;;4984975;28;20026;-77
2023/05/01 13:24:55;;;;;;;2.15;1.20;;;;;;;;;;4982808;28;20488;-77
2023/05/01 13:27:22;;;;;;;3.28;1.92;;;;;;;;;;4983778;28;20393;-80
2023/05/01 13:29:56;;;;;;;3.47;1.23;;;;;;;;;;4985581;28;20023;-89
2023/05/01 13:32:23;;;;;;;3.08;1.70;;;;;;;;;;4978173;28;20038;-80
2023/05/01 13:34:49;;;;;;;6.07;1.90;;;;;;;;;;4982626;28;20491;-76
2023/05/01 13:37:15;;;;;;;3.67;1.60;;;;;;;;;;4985195;28;20109;-78
2023/05/01 13:39:42;;;;;;;1.73;1.20;;;;;;;;;;4985103;28;20034;-83
2023/05/01 13:42:08;;;;;;;3.35;1.60;;;;;;;;;;4985367;28;20042;-79
2023/05/01 13:44:42;;;;;;;3.30;1.65;;;;;;;;;;4983421;28;20377;-78
2023/05/01 13:47:08;;;;;;;3.20;1.60;;;;;;;;;;4977098;28;20037;-76
2023/05/01 13:49:37;;;;;;;5.45;2.00;;;;;;;;;;4976730;28;20030;-78
2023/05/01 13:52:03;;;;;;;1.52;1.15;;;;;;;;;;4981493;28;20500;-77
2023/05/01 13:54:29;;;;;;;6.32;1.60;;;;;;;;;;4976365;28;20034;-81
2023/05/01 13:56:56;;;;;;;2.55;1.67;;;;;;;;;;4975142;28;20038;-80
2023/05/01 13:59:29;;;;;;;2.08;1.60;;;;;;;;;;4977660;28;20038;-81
2023/05/01 14:01:55;;;;;;;2.88;1.27;;;;;;;;;;4981167;28;20026;-76
2023/05/01 14:04:22;;;;;;;2.97;1.30;;;;;;;;;;4972619;28;20241;-86
2023/05/01 14:06:52;;;;;;;3.75;1.70;;;;;;;;;;4974656;28;20033;-83
2023/05/01 14:09:18;;;;;;;4.72;2.03;;;;;;;;;;4973248;28;20101;-82
2023/05/01 14:11:48;;;;;;;2.53;1.52;;;;;;;;;;4975456;28;20034;-81
2023/05/01 14:14:17;;;;;;;2.97;1.50;;;;;;;;;;4980571;28;20026;-87
2023/05/01 14:16:47;;;;;;;2.63;1.95;;;;;;;;;;4972998;28;20543;-87
2023/05/01 14:19:17;;;;;;;7.82;2.00;;;;;;;;;;4977515;28;20022;-92
2023/05/01 14:21:46;;;;;;;1.73;1.55;;;;;;;;;;4985595;28;20034;-89
2023/05/01 14:24:13;;;;;;;1.73;1.60;;;;;;;;;;4985616;28;20022;-90
2023/05/01 14:26:45;;;;;;;2.10;1.60;;;;;;;;;;4969009;28;20053;-90
2023/05/01 14:29:16;;;;;;;2.05;1.50;;;;;;;;;;4981192;28;20034;-93
2023/05/01 14:31:43;;;;;;;3.50;1.65;;;;;;;;;;4981465;28;20389;-87
2023/05/01 14:34:09;;;;;;;5.13;1.95;;;;;;;;;;4970027;28;20037;-80
2023/05/01 14:36:36;;;;;;;3.05;1.60;;;;;;;;;;4982215;28;20022;-84
2023/05/01 14:39:02;;;;;;;2.78;1.65;;;;;;;;;;4977823;28;20108;-85
2023/05/01 14:41:28;;;;;;;5.35;2.15;;;;;;;;;;4977591;28;20030;-84
2023/05/01 14:43:55;;;;;;;2.05;1.65;;;;;;;;;;4974800;28;20054;-84
2023/05/01 14:46:31;;;;;;;3.22;1.58;;;;;;;;;;4974606;28;20085;-84